createdAt,value
2019-04-16T00:01:22.744Z,20.60
2019-04-16T00:03:56.446Z,20.05
2019-04-16T00:06:27.419Z,20.30
2019-04-16T00:09:07.705Z,21.57
2019-04-16T00:11:50.607Z,19.40
2019-04-16T00:14:21.565Z,20.02
2019-04-16T00:16:50.914Z,20.62
2019-04-16T00:19:20.223Z,19.62
2019-04-16T00:22:02.958Z,19.80
2019-04-16T00:24:33.948Z,22.00
2019-04-16T00:27:03.451Z,20.10
2019-04-16T00:29:33.706Z,21.75
2019-04-16T00:32:07.831Z,21.62
2019-04-16T00:34:35.834Z,21.07
2019-04-16T00:37:05.453Z,21.97
2019-04-16T00:39:34.873Z,21.50
2019-04-16T00:42:04.336Z,23.73
2019-04-16T00:44:33.740Z,22.98
2019-04-16T00:47:03.086Z,23.07
2019-04-16T00:49:32.379Z,22.50
2019-04-16T00:52:05.863Z,22.90
2019-04-16T00:54:33.904Z,23.15
2019-04-16T00:57:03.211Z,24.45
2019-04-16T00:59:33.671Z,23.12
2019-04-16T01:02:03.269Z,26.95
2019-04-16T01:04:32.581Z,22.73
2019-04-16T01:07:01.940Z,23.67
2019-04-16T01:09:32.939Z,23.55
2019-04-16T01:14:30.929Z,24.20
2019-04-16T01:17:03.894Z,22.45
2019-04-16T01:19:31.402Z,23.65
2019-04-16T01:22:00.736Z,22.22
2019-04-16T01:24:30.071Z,21.30
2019-04-16T01:26:59.506Z,21.95
2019-04-16T01:29:33.628Z,21.30
2019-04-16T01:32:04.436Z,22.15
2019-04-16T01:34:38.440Z,22.02
2019-04-16T01:37:12.123Z,22.95
2019-04-16T01:39:47.420Z,22.15
2019-04-16T01:42:16.148Z,21.62
2019-04-16T01:44:45.467Z,21.50
2019-04-16T01:47:14.900Z,21.80
2019-04-16T01:49:44.273Z,20.77
2019-04-16T01:52:13.628Z,23.77
2019-04-16T01:54:43.481Z,23.15
2019-04-16T01:59:42.376Z,20.25
2019-04-16T02:02:14.587Z,19.87
2019-04-16T02:04:42.786Z,20.55
2019-04-16T02:07:12.109Z,18.70
2019-04-16T02:09:41.485Z,19.23
2019-04-16T02:12:13.421Z,18.85
2019-04-16T02:14:41.879Z,19.92
2019-04-16T02:17:11.306Z,18.98
2019-04-16T02:19:40.615Z,21.65
2019-04-16T02:22:12.637Z,21.93
2019-04-16T02:24:40.946Z,21.97
2019-04-16T02:27:10.269Z,24.40
2019-04-16T02:29:39.604Z,23.47
2019-04-16T02:32:08.948Z,24.57
2019-04-16T02:34:38.332Z,23.02
2019-04-16T02:37:07.659Z,24.32
2019-04-16T02:39:47.643Z,24.98
2019-04-16T02:42:07.994Z,24.43
2019-04-16T02:44:37.396Z,23.67
2019-04-16T02:47:08.028Z,24.55
2019-04-16T02:49:41.218Z,23.85
2019-04-16T02:52:40.938Z,25.30
2019-04-16T02:55:17.900Z,22.65
2019-04-16T02:58:04.895Z,23.20
2019-04-16T03:00:36.185Z,23.07
2019-04-16T03:03:08.277Z,23.45
2019-04-16T03:05:39.400Z,24.00
2019-04-16T03:08:08.791Z,24.35
2019-04-16T03:10:41.766Z,23.35
2019-04-16T03:13:10.097Z,23.20
2019-04-16T03:15:41.047Z,24.47
2019-04-16T03:18:15.008Z,22.60
2019-04-16T03:20:44.756Z,23.42
2019-04-16T03:23:14.089Z,24.00
2019-04-16T03:25:45.174Z,23.65
2019-04-16T03:28:14.672Z,25.08
2019-04-16T03:30:43.971Z,22.95
2019-04-16T03:33:15.137Z,22.50
2019-04-16T03:35:44.450Z,23.27
2019-04-16T03:38:13.861Z,27.15
2019-04-16T03:40:43.284Z,23.22
2019-04-16T03:43:12.624Z,23.70
2019-04-16T03:45:41.952Z,24.72
2019-04-16T03:48:11.298Z,24.37
2019-04-16T03:50:40.607Z,24.02
2019-04-16T03:53:09.946Z,25.48
2019-04-16T03:55:39.240Z,30.32
2019-04-16T03:58:08.564Z,25.95
2019-04-16T04:00:43.675Z,25.37
2019-04-16T04:03:08.886Z,26.30
2019-04-16T04:05:38.221Z,33.53
2019-04-16T04:08:07.563Z,23.80
2019-04-16T04:10:37.769Z,25.05
2019-04-16T04:13:07.299Z,25.55
2019-04-16T04:15:36.587Z,26.00
2019-04-16T04:18:07.979Z,29.67
2019-04-16T04:20:36.932Z,25.62
2019-04-16T04:23:06.477Z,25.80
2019-04-16T04:25:37.012Z,25.60
2019-04-16T04:28:06.703Z,30.90
2019-04-16T04:30:36.141Z,26.45
2019-04-16T04:33:08.962Z,27.50
2019-04-16T04:35:36.698Z,26.80
2019-04-16T04:38:06.020Z,28.05
2019-04-16T04:40:44.247Z,28.90
2019-04-16T04:43:06.364Z,26.45
2019-04-16T04:45:37.675Z,24.57
2019-04-16T04:48:06.704Z,24.00
2019-04-16T04:50:36.085Z,26.42
2019-04-16T04:53:05.613Z,27.62
2019-04-16T04:55:34.950Z,24.98
2019-04-16T04:58:04.278Z,27.60
2019-04-16T05:00:33.612Z,25.27
2019-04-16T05:03:02.941Z,28.57
2019-04-16T05:05:33.884Z,24.57
2019-04-16T05:08:04.284Z,26.15
2019-04-16T05:10:36.628Z,26.33
2019-04-16T05:13:04.683Z,25.62
2019-04-16T05:15:33.998Z,26.17
2019-04-16T05:18:05.833Z,29.82
2019-04-16T05:20:34.356Z,27.27
2019-04-16T05:23:03.774Z,25.05
2019-04-16T05:25:34.359Z,32.98
2019-04-16T05:28:03.870Z,24.55
2019-04-16T05:30:33.197Z,25.65
2019-04-16T05:33:05.565Z,25.37
2019-04-16T05:35:33.546Z,24.27
2019-04-16T05:38:02.919Z,25.68
2019-04-16T05:40:35.117Z,26.68
2019-04-16T05:43:03.324Z,24.70
2019-04-16T05:45:34.503Z,25.10
2019-04-16T05:48:03.672Z,27.50
2019-04-16T05:50:33.000Z,24.72
2019-04-16T05:53:02.331Z,29.60
2019-04-16T05:55:36.129Z,25.02
2019-04-16T05:58:05.453Z,24.05
2019-04-16T06:00:38.605Z,24.07
2019-04-16T06:03:07.447Z,21.55
2019-04-16T06:05:36.763Z,21.15
2019-04-16T06:08:10.734Z,21.55
2019-04-16T06:10:41.294Z,23.07
2019-04-16T06:13:13.194Z,23.20
2019-04-16T06:16:00.768Z,22.70
2019-04-16T06:18:43.559Z,25.00
2019-04-16T06:21:30.398Z,24.47
2019-04-16T06:24:10.431Z,28.02
2019-04-16T06:26:53.412Z,25.90
2019-04-16T06:29:29.077Z,29.27
2019-04-16T06:31:59.852Z,27.05
2019-04-16T06:34:47.119Z,26.37
2019-04-16T06:37:21.551Z,26.97
2019-04-16T06:40:00.626Z,27.42
2019-04-16T06:42:29.413Z,28.12
2019-04-16T06:45:01.671Z,27.82
2019-04-16T06:47:45.097Z,26.20
2019-04-16T06:50:31.190Z,25.80
2019-04-16T06:53:13.085Z,24.95
2019-04-16T06:55:44.061Z,25.15
2019-04-16T06:58:20.477Z,26.17
2019-04-16T07:01:05.829Z,25.85
2019-04-16T07:03:33.411Z,26.57
2019-04-16T07:06:04.825Z,25.40
2019-04-16T07:08:51.958Z,26.68
2019-04-16T07:11:24.943Z,29.70
2019-04-16T07:13:54.313Z,24.98
2019-04-16T07:16:27.949Z,26.45
2019-04-16T07:18:54.680Z,25.27
2019-04-16T07:21:23.984Z,25.55
2019-04-16T07:23:56.863Z,26.33
2019-04-16T07:26:24.391Z,26.40
2019-04-16T07:28:58.775Z,24.10
2019-04-16T07:31:34.706Z,27.90
2019-04-16T07:34:06.429Z,27.62
2019-04-16T07:36:56.630Z,25.50
2019-04-16T07:39:29.239Z,29.95
2019-04-16T07:42:21.366Z,24.72
2019-04-16T07:45:11.401Z,24.12
2019-04-16T07:47:53.635Z,26.52
2019-04-16T07:50:24.673Z,26.37
2019-04-16T07:52:55.622Z,25.90
2019-04-16T07:55:32.653Z,27.13
2019-04-16T07:58:01.952Z,26.10
2019-04-16T08:00:31.440Z,26.48
2019-04-16T08:03:00.741Z,26.30
2019-04-16T08:05:30.077Z,25.43
2019-04-16T08:08:00.693Z,25.02
2019-04-16T08:10:30.138Z,26.45
2019-04-16T08:13:01.851Z,27.70
2019-04-16T08:15:31.600Z,26.12
2019-04-16T08:18:00.921Z,24.92
2019-04-16T08:20:30.227Z,25.05
2019-04-16T08:23:01.217Z,24.02
2019-04-16T08:25:34.073Z,25.02
2019-04-16T08:28:02.224Z,24.52
2019-04-16T08:30:35.456Z,25.80
2019-04-16T08:33:02.618Z,26.17
2019-04-16T08:35:31.993Z,24.70
2019-04-16T08:38:01.344Z,25.02
2019-04-16T08:40:30.659Z,24.02
2019-04-16T08:42:59.995Z,24.45
2019-04-16T08:45:29.315Z,24.85
2019-04-16T08:47:58.653Z,24.72
2019-04-16T08:50:27.996Z,24.55
2019-04-16T08:52:57.331Z,24.07
2019-04-16T08:55:26.668Z,24.57
2019-04-16T08:57:55.995Z,23.65
2019-04-16T09:00:25.313Z,24.05
2019-04-16T09:02:57.577Z,23.38
2019-04-16T09:05:25.702Z,23.50
2019-04-16T09:08:10.896Z,26.27
2019-04-16T09:10:30.911Z,22.42
2019-04-16T09:13:04.967Z,25.52
2019-04-16T09:15:36.445Z,23.45
2019-04-16T09:18:23.904Z,24.92
2019-04-16T09:20:53.374Z,23.95
2019-04-16T09:23:25.903Z,23.42
2019-04-16T09:26:12.927Z,24.70
2019-04-16T09:28:37.009Z,23.42
2019-04-16T09:31:08.251Z,22.77
2019-04-16T09:33:51.227Z,22.50
2019-04-16T09:36:31.184Z,19.95
2019-04-16T09:39:02.172Z,20.00
2019-04-16T09:41:34.760Z,21.17
2019-04-16T09:44:04.940Z,20.90
2019-04-16T09:46:50.569Z,19.10
2019-04-16T09:49:06.181Z,19.82
2019-04-16T09:51:35.956Z,19.52
2019-04-16T09:54:05.543Z,19.48
2019-04-16T09:56:34.874Z,18.17
2019-04-16T09:59:06.384Z,19.12
2019-04-16T10:01:39.982Z,18.17
2019-04-16T10:04:11.116Z,17.17
2019-04-16T10:06:40.487Z,16.45
2019-04-16T10:09:09.965Z,17.35
2019-04-16T10:11:39.284Z,19.45
2019-04-16T10:14:08.689Z,18.67
2019-04-16T10:16:39.072Z,17.50
2019-04-16T10:19:09.234Z,17.40
2019-04-16T10:21:38.733Z,18.00
2019-04-16T10:24:09.683Z,16.07
2019-04-16T10:26:39.028Z,16.75
2019-04-16T10:29:10.023Z,16.37
2019-04-16T10:31:39.439Z,16.27
2019-04-16T10:34:08.946Z,15.55
2019-04-16T10:36:38.350Z,15.10
2019-04-16T10:39:12.567Z,15.60
2019-04-16T10:41:59.068Z,16.15
2019-04-16T10:44:30.033Z,15.00
2019-04-16T10:47:19.398Z,15.75
2019-04-16T10:49:49.130Z,15.32
2019-04-16T10:52:26.230Z,16.15
2019-04-16T10:54:57.206Z,15.10
2019-04-16T10:57:28.248Z,15.60
2019-04-16T11:00:05.277Z,16.17
2019-04-16T11:02:45.789Z,15.03
2019-04-16T11:05:22.582Z,13.53
2019-04-16T11:07:53.735Z,14.30
2019-04-16T11:10:23.047Z,13.68
2019-04-16T11:15:22.803Z,13.72
2019-04-16T11:17:52.231Z,12.40
2019-04-16T11:20:21.651Z,12.03
2019-04-16T11:22:51.066Z,12.40
2019-04-16T11:27:49.178Z,12.43
2019-04-16T11:33:04.552Z,12.18
2019-04-16T11:35:34.439Z,13.05
2019-04-16T11:38:04.164Z,9.23
2019-04-16T11:40:33.639Z,10.43
2019-04-16T11:45:31.579Z,11.40
2019-04-16T11:48:00.939Z,10.85
2019-04-16T11:52:59.129Z,7.50
2019-04-16T11:55:28.512Z,7.70
2019-04-16T11:57:57.830Z,6.35
2019-04-16T12:00:34.701Z,6.50
2019-04-16T12:03:11.662Z,5.70
2019-04-16T12:05:51.379Z,5.08
2019-04-16T12:08:38.857Z,5.15
2019-04-16T12:11:21.770Z,5.37
2019-04-16T12:13:52.755Z,6.15
2019-04-16T12:16:26.245Z,5.92
2019-04-16T12:19:15.376Z,5.85
2019-04-16T12:21:49.353Z,6.90
2019-04-16T12:24:29.340Z,6.20
2019-04-16T12:27:16.614Z,6.30
2019-04-16T12:29:50.781Z,6.95
2019-04-16T12:32:26.855Z,5.55
2019-04-16T12:34:59.891Z,6.00
2019-04-16T12:37:47.043Z,10.13
2019-04-16T12:40:19.580Z,11.68
2019-04-16T12:42:56.846Z,10.75
2019-04-16T12:45:45.329Z,11.85
2019-04-16T12:48:28.722Z,11.60
2019-04-16T12:51:15.771Z,12.40
2019-04-16T12:53:56.004Z,12.10
2019-04-16T12:56:29.963Z,13.20
2019-04-16T12:59:04.006Z,14.35
2019-04-16T13:01:36.470Z,12.40
2019-04-16T13:04:10.592Z,13.90
2019-04-16T13:06:41.583Z,14.63
2019-04-16T13:09:28.443Z,15.03
2019-04-16T13:12:08.170Z,15.50
2019-04-16T13:15:00.735Z,13.98
2019-04-16T13:17:26.562Z,15.43
2019-04-16T13:20:09.755Z,15.48
2019-04-16T13:22:58.929Z,16.07
2019-04-16T13:25:36.113Z,16.55
2019-04-16T13:28:06.433Z,16.42
2019-04-16T13:30:35.731Z,16.80
2019-04-16T13:33:05.072Z,18.27
2019-04-16T13:35:34.413Z,17.07
2019-04-16T13:38:08.139Z,18.90
2019-04-16T13:40:34.816Z,15.93
2019-04-16T13:43:05.580Z,16.75
2019-04-16T13:45:36.691Z,17.65
2019-04-16T13:48:16.416Z,17.32
2019-04-16T13:50:46.549Z,16.93
2019-04-16T13:53:28.658Z,10.05
2019-04-16T13:55:56.165Z,8.05
2019-04-16T13:58:31.372Z,7.20
2019-04-16T14:01:02.438Z,7.53
2019-04-16T14:03:31.762Z,7.03
2019-04-16T14:06:01.179Z,8.10
2019-04-16T14:08:30.472Z,18.02
2019-04-16T14:10:59.813Z,8.48
2019-04-16T14:13:29.145Z,9.23
2019-04-16T14:15:58.822Z,9.98
2019-04-16T14:18:29.574Z,13.43
2019-04-16T14:20:59.608Z,11.05
2019-04-16T14:23:29.052Z,13.30
2019-04-16T14:25:58.571Z,11.60
2019-04-16T14:28:28.132Z,11.40
2019-04-16T14:30:57.448Z,10.53
2019-04-16T14:33:28.550Z,12.20
2019-04-16T14:35:57.973Z,14.63
2019-04-16T14:38:29.062Z,11.30
2019-04-16T14:40:58.468Z,14.60
2019-04-16T14:43:30.151Z,10.80
2019-04-16T14:46:00.708Z,11.30
2019-04-16T14:48:30.090Z,11.73
2019-04-16T14:50:59.439Z,10.63
2019-04-16T14:53:30.395Z,10.72
2019-04-16T14:56:01.772Z,10.78
2019-04-16T14:58:33.353Z,12.63
2019-04-16T15:01:07.111Z,11.43
2019-04-16T15:03:50.257Z,12.93
2019-04-16T15:06:21.236Z,14.75
2019-04-16T15:09:01.137Z,12.45
2019-04-16T15:11:48.763Z,12.45
2019-04-16T15:14:19.723Z,12.50
2019-04-16T15:17:05.833Z,13.62
2019-04-16T15:19:42.840Z,12.68
2019-04-16T15:22:32.002Z,13.78
2019-04-16T15:25:06.067Z,13.78
2019-04-16T15:27:49.715Z,13.25
2019-04-16T15:30:37.595Z,12.65
2019-04-16T15:33:11.792Z,14.30
2019-04-16T15:35:46.815Z,16.82
2019-04-16T15:38:18.720Z,17.32
2019-04-16T15:40:49.676Z,15.40
2019-04-16T15:43:38.552Z,16.40
2019-04-16T15:46:25.056Z,15.65
2019-04-16T15:49:00.719Z,15.50
2019-04-16T15:51:50.799Z,15.95
2019-04-16T15:54:20.732Z,15.60
2019-04-16T15:56:51.705Z,16.65
2019-04-16T15:59:38.039Z,16.60
2019-04-16T16:02:25.349Z,16.87
2019-04-16T16:04:59.098Z,18.37
2019-04-16T16:07:28.891Z,19.50
2019-04-16T16:10:05.895Z,20.80
2019-04-16T16:12:35.210Z,21.17
2019-04-16T16:15:08.772Z,20.00
2019-04-16T16:17:38.044Z,20.50
2019-04-16T16:20:10.283Z,19.73
2019-04-16T16:22:39.717Z,21.50
2019-04-16T16:25:09.388Z,20.60
2019-04-16T16:27:41.755Z,22.60
2019-04-16T16:30:14.376Z,23.52
2019-04-16T16:32:40.902Z,21.55
2019-04-16T16:35:10.387Z,22.85
2019-04-16T16:37:39.768Z,24.23
2019-04-16T16:40:12.018Z,20.25
2019-04-16T16:42:40.445Z,21.85
2019-04-16T16:45:10.089Z,20.92
2019-04-16T16:47:40.263Z,20.95
2019-04-16T16:50:11.691Z,23.02
2019-04-16T16:52:51.609Z,21.20
2019-04-16T16:55:31.648Z,21.30
2019-04-16T16:58:08.933Z,22.77
2019-04-16T17:00:47.045Z,22.73
2019-04-16T17:03:18.027Z,23.12
2019-04-16T17:05:47.892Z,22.48
2019-04-16T17:08:17.222Z,23.53
2019-04-16T17:10:46.569Z,112.47
2019-04-16T17:13:20.804Z,25.75
2019-04-16T17:15:46.941Z,24.15
2019-04-16T17:18:16.271Z,24.55
2019-04-16T17:20:45.595Z,22.77
2019-04-16T17:23:16.722Z,24.18
2019-04-16T17:25:46.013Z,22.77
2019-04-16T17:28:15.498Z,67.62
2019-04-16T17:30:44.908Z,24.45
2019-04-16T17:33:14.268Z,24.05
2019-04-16T17:35:46.230Z,21.62
2019-04-16T17:38:14.782Z,22.00
2019-04-16T17:40:58.653Z,22.87
2019-04-16T17:43:32.954Z,20.43
2019-04-16T17:46:20.217Z,19.98
2019-04-16T17:48:54.195Z,20.25
2019-04-16T17:51:28.430Z,19.17
2019-04-16T17:53:59.413Z,22.27
2019-04-16T17:56:46.694Z,20.30
2019-04-16T17:59:17.731Z,19.23
2019-04-16T18:02:07.037Z,17.30
2019-04-16T18:04:44.921Z,14.93
2019-04-16T18:07:33.208Z,12.90
2019-04-16T18:10:04.453Z,13.22
2019-04-16T18:12:41.994Z,12.63
2019-04-16T18:15:31.536Z,14.80
2019-04-16T18:18:15.526Z,11.55
2019-04-16T18:20:58.727Z,11.45
2019-04-16T18:23:27.882Z,11.95
2019-04-16T18:26:15.073Z,12.85
2019-04-16T18:28:46.079Z,10.78
2019-04-16T18:31:29.010Z,10.95
2019-04-16T18:34:16.218Z,13.28
2019-04-16T18:36:59.252Z,24.63
2019-04-16T18:39:37.623Z,19.60
2019-04-16T18:42:11.460Z,13.30
2019-04-16T18:44:45.221Z,11.83
2019-04-16T18:47:19.184Z,10.53
2019-04-16T18:49:50.135Z,11.33
2019-04-16T18:52:19.587Z,43.23
2019-04-16T18:54:49.416Z,14.70
2019-04-16T18:57:19.523Z,11.63
2019-04-16T18:59:48.904Z,11.97
2019-04-16T19:02:18.372Z,12.20
2019-04-16T19:04:50.824Z,13.43
2019-04-16T19:07:18.993Z,11.43
2019-04-16T19:09:48.396Z,13.15
2019-04-16T19:12:18.143Z,13.28
2019-04-16T19:14:47.521Z,12.30
2019-04-16T19:17:17.567Z,11.22
2019-04-16T19:19:47.106Z,24.02
2019-04-16T19:22:16.423Z,20.68
2019-04-16T19:24:45.762Z,14.87
2019-04-16T19:27:15.249Z,15.68
2019-04-16T19:29:45.438Z,14.70
2019-04-16T19:32:15.477Z,14.45
2019-04-16T19:34:44.819Z,14.65
2019-04-16T19:37:14.120Z,16.27
2019-04-16T19:39:43.792Z,14.38
2019-04-16T19:42:14.963Z,14.28
2019-04-16T19:44:44.271Z,13.62
2019-04-16T19:47:13.607Z,15.32
2019-04-16T19:49:43.290Z,14.15
2019-04-16T19:52:14.336Z,14.90
2019-04-16T19:54:43.936Z,15.35
2019-04-16T19:57:13.360Z,15.38
2019-04-16T19:59:46.406Z,14.87
2019-04-16T20:02:14.178Z,15.13
2019-04-16T20:04:44.419Z,14.90
2019-04-16T20:07:14.494Z,14.38
2019-04-16T20:09:43.873Z,14.87
2019-04-16T20:12:13.184Z,15.50
2019-04-16T20:14:42.582Z,16.23
2019-04-16T20:17:12.989Z,15.03
2019-04-16T20:19:57.750Z,16.23
2019-04-16T20:22:30.164Z,15.40
2019-04-16T20:24:59.852Z,14.93
2019-04-16T20:27:29.182Z,14.23
2019-04-16T20:29:59.592Z,15.55
2019-04-16T20:32:30.870Z,16.27
2019-04-16T20:35:00.468Z,16.07
2019-04-16T20:37:29.850Z,14.03
2019-04-16T20:39:59.608Z,14.03
2019-04-16T20:42:29.083Z,13.87
2019-04-16T20:44:58.434Z,14.25
2019-04-16T20:47:27.780Z,16.40
2019-04-16T20:49:57.286Z,15.75
2019-04-16T20:52:26.635Z,13.65
2019-04-16T20:54:56.030Z,16.50
2019-04-16T20:57:26.420Z,15.03
2019-04-16T20:59:57.112Z,14.18
2019-04-16T21:02:28.157Z,15.48
2019-04-16T21:04:58.195Z,14.35
2019-04-16T21:07:28.502Z,13.85
2019-04-16T21:10:02.518Z,14.43
2019-04-16T21:12:28.869Z,14.73
2019-04-16T21:14:58.205Z,14.53
2019-04-16T21:17:28.649Z,14.68
2019-04-16T21:19:57.957Z,13.70
2019-04-16T21:22:27.885Z,12.95
2019-04-16T21:24:58.267Z,14.25
2019-04-16T21:27:27.720Z,14.90
2019-04-16T21:29:57.091Z,13.05
2019-04-16T21:32:37.320Z,13.83
2019-04-16T21:35:14.975Z,12.75
2019-04-16T21:38:02.299Z,12.63
2019-04-16T21:40:32.087Z,13.05
2019-04-16T21:43:06.312Z,14.13
2019-04-16T21:45:32.537Z,15.15
2019-04-16T21:48:02.862Z,14.63
2019-04-16T21:50:32.332Z,14.58
2019-04-16T21:53:01.646Z,13.83
2019-04-16T21:55:32.827Z,13.32
2019-04-16T21:58:02.001Z,12.07
2019-04-16T22:00:33.255Z,11.68
2019-04-16T22:03:09.426Z,12.13
2019-04-16T22:05:36.964Z,13.08
2019-04-16T22:08:06.302Z,13.38
2019-04-16T22:10:35.787Z,12.55
2019-04-16T22:13:05.261Z,13.35
2019-04-16T22:15:34.565Z,13.43
2019-04-16T22:18:07.575Z,14.18
2019-04-16T22:20:35.642Z,13.28
2019-04-16T22:25:34.877Z,13.18
2019-04-16T22:28:04.260Z,12.93
2019-04-16T22:30:33.595Z,11.78
2019-04-16T22:33:06.459Z,13.03
2019-04-16T22:35:34.148Z,12.13
2019-04-16T22:38:03.554Z,11.73
2019-04-16T22:40:34.563Z,13.18
2019-04-16T22:43:07.807Z,13.32
2019-04-16T22:45:41.145Z,13.15
2019-04-16T22:48:10.463Z,12.80
2019-04-16T22:50:39.796Z,13.93
2019-04-16T22:53:09.096Z,15.00
2019-04-16T22:55:42.358Z,14.05
2019-04-16T22:58:24.076Z,14.40
2019-04-16T23:00:55.276Z,14.65
2019-04-16T23:03:24.680Z,14.28
2019-04-16T23:05:53.995Z,14.58
2019-04-16T23:08:23.321Z,14.58
2019-04-16T23:10:52.664Z,15.13
2019-04-16T23:13:21.966Z,14.87
2019-04-16T23:15:51.297Z,16.02
2019-04-16T23:18:20.796Z,15.00
2019-04-16T23:20:50.096Z,14.23
2019-04-16T23:23:19.453Z,13.62
2019-04-16T23:25:48.821Z,13.88
2019-04-16T23:28:18.139Z,13.48
2019-04-16T23:30:47.883Z,14.95
2019-04-16T23:33:18.503Z,15.63
2019-04-16T23:35:47.831Z,14.43
2019-04-16T23:38:17.148Z,13.88
2019-04-16T23:40:46.465Z,14.98
2019-04-16T23:43:18.813Z,14.78
2019-04-16T23:46:06.936Z,14.65
2019-04-16T23:48:38.139Z,16.35
2019-04-16T23:51:15.172Z,15.48
2019-04-16T23:54:01.258Z,14.60
2019-04-16T23:56:35.008Z,15.65
2019-04-16T23:59:09.057Z,15.78
